Sitka, AK

1:13 PM AKDT on September 18, 2014 (GMT -0800)
Port Alexander | Change Station
CLOSE
Current Station
Airport
Location: Port Alexander,
Elevation: 0 ft
Nearby Weather Stations

Elev 0 ft 56.25 °N, 134.65 °W | Updated 19 minutes ago

Light Drizzle
Light Drizzle Mist
52 °F
Feels Like 52 °F
N
12
Wind Variable Wind from SSW

Today
High -- | Low -- °F
--% Chance of Precip.
Yesterday
High -- | Low -- °F
Precip. -- in
6:38 AM 7:10 PM
Waning Crescent, 24% visible
Pressure 29.22 in
Visibility 4.0 miles
Clouds Overcast 500 ft
Dew Point 52 °F
Humidity 100%
Rainfall 0.00 in
Snow Depth 2 in , 2 in , 0 in
UV 1 out of 12
Pollen Not available.
Air Quality Not available.
Flu Activity Not available.
METAR PAAP 182054Z 21010KT 4SM -DZ BR OVC005 11/11 A2922 RMK NO SPECI

More Conditions Fewer Conditions

Pressure 29.22 in
Visibility 4.0 miles
Clouds Overcast 500 ft
Dew Point 52 °F
Humidity 100%
Rainfall 0.00 in
Snow Depth 2 in , 2 in , 0 in
UV 1 out of 12
Pollen Not available.
Air Quality Not available.
Flu Activity Not available.
METAR PAAP 182054Z 21010KT 4SM -DZ BR OVC005 11/11 A2922 RMK NO SPECI

More Conditions Fewer Conditions

10-Day Weather Forecast

Almanac

Astronomy

Sep. 18, 2014 Rise Set
Actual Time 6:38 AM AKDT 7:10 PM AKDT
Civil Twilight 6:00 AM AKDT 7:49 PM AKDT
Nautical Twilight 5:13 AM AKDT 8:35 PM AKDT
Astronomical Twilight 4:23 AM AKDT 9:25 PM AKDT
Moon 12:50 AM AKDT 4:48 PM AKDT
Length of Visible Light 13h 49m
Length of Day
12h 32m
Tomorrow will be 4m 48s shorter.
Waning Crescent, 24% of the Moon is Illuminated
Today
Waning Crescent
Sep 24
New
Oct 1
First Quarter
Oct 8
Full
Oct 15
Last Quarter

Today's Extremes

State Highs State Lows

Community

WunderPhotos

Upload Photos

1,754,448 photos uploaded!

WunderBlogs® & News

By Dr. Jeff Masters
Director of Meteorology, Weather Underground
By Kari Strenfel
Meteorologist, Weather Underground
By Christopher C. Burt
Weather Historian, Weather Underground
September 18, 2014
September 18, 2014
September 18, 2014

Nearby

Snow Depth

Station Depth Elevation
Atigun Pass 2 in 4800 ft
Indian Pass 2 in 2300 ft
Eagle Summit 0 in 3650 ft
Little Chena Ridge 0 in 2000 ft
Granite Creek 0 in 1240 ft

Earthquake Activity

City Distance Mag. Time & Date
No recent earthquake activity has been reported nearby.
Minimum magnitude displayed is 2.5.

Coastal Water Temperatures

Place Temperature
No Stations Reporting

Nearby Weather Stations